sensor_id;sensor_type;location;lat;lon;timestamp;temperature;humidity
63317;DHT22;49822;41.468;13.560;2024-03-02T00:00:29;10.50;96.80
63317;DHT22;49822;41.468;13.560;2024-03-02T00:02:55;10.50;96.80
63317;DHT22;49822;41.468;13.560;2024-03-02T00:05:22;10.50;96.90
63317;DHT22;49822;41.468;13.560;2024-03-02T00:07:54;10.50;96.80
63317;DHT22;49822;41.468;13.560;2024-03-02T00:10:41;10.30;96.50
63317;DHT22;49822;41.468;13.560;2024-03-02T00:13:10;10.20;97.20
63317;DHT22;49822;41.468;13.560;2024-03-02T00:15:55;10.00;97.90
63317;DHT22;49822;41.468;13.560;2024-03-02T00:18:30;10.00;98.30
63317;DHT22;49822;41.468;13.560;2024-03-02T00:20:57;10.00;98.40
63317;DHT22;49822;41.468;13.560;2024-03-02T00:23:25;9.90;98.10
63317;DHT22;49822;41.468;13.560;2024-03-02T00:25:54;9.90;98.90
63317;DHT22;49822;41.468;13.560;2024-03-02T00:33:37;10.20;99.10
63317;DHT22;49822;41.468;13.560;2024-03-02T00:36:06;10.20;98.80
63317;DHT22;49822;41.468;13.560;2024-03-02T00:38:33;10.20;99.00
63317;DHT22;49822;41.468;13.560;2024-03-02T00:41:04;10.30;98.90
63317;DHT22;49822;41.468;13.560;2024-03-02T00:46:06;10.30;98.00
63317;DHT22;49822;41.468;13.560;2024-03-02T00:48:33;10.30;97.70
63317;DHT22;49822;41.468;13.560;2024-03-02T00:51:05;10.30;98.00
63317;DHT22;49822;41.468;13.560;2024-03-02T00:53:32;10.40;97.90
63317;DHT22;49822;41.468;13.560;2024-03-02T00:55:59;10.30;98.10
63317;DHT22;49822;41.468;13.560;2024-03-02T00:58:28;10.30;98.20
63317;DHT22;49822;41.468;13.560;2024-03-02T01:00:54;10.40;98.20
63317;DHT22;49822;41.468;13.560;2024-03-02T01:03:21;10.40;97.80
63317;DHT22;49822;41.468;13.560;2024-03-02T01:05:47;10.40;97.90
63317;DHT22;49822;41.468;13.560;2024-03-02T01:08:14;10.40;97.80
63317;DHT22;49822;41.468;13.560;2024-03-02T01:10:40;10.50;97.60
63317;DHT22;49822;41.468;13.560;2024-03-02T01:13:06;10.50;97.50
63317;DHT22;49822;41.468;13.560;2024-03-02T01:15:33;10.40;97.30
63317;DHT22;49822;41.468;13.560;2024-03-02T01:17:59;10.40;97.30
63317;DHT22;49822;41.468;13.560;2024-03-02T01:20:25;10.40;97.40
63317;DHT22;49822;41.468;13.560;2024-03-02T01:22:51;10.40;97.40
63317;DHT22;49822;41.468;13.560;2024-03-02T01:25:18;10.30;97.20
63317;DHT22;49822;41.468;13.560;2024-03-02T01:27:45;10.40;97.20
63317;DHT22;49822;41.468;13.560;2024-03-02T01:30:11;10.40;97.10
63317;DHT22;49822;41.468;13.560;2024-03-02T01:32:40;10.40;97.10
63317;DHT22;49822;41.468;13.560;2024-03-02T01:35:06;10.40;97.30
63317;DHT22;49822;41.468;13.560;2024-03-02T01:37:33;10.40;97.40
63317;DHT22;49822;41.468;13.560;2024-03-02T01:39:59;10.50;97.20
63317;DHT22;49822;41.468;13.560;2024-03-02T01:42:25;10.50;97.20
63317;DHT22;49822;41.468;13.560;2024-03-02T01:44:51;10.40;97.20
63317;DHT22;49822;41.468;13.560;2024-03-02T01:47:18;10.50;96.90
63317;DHT22;49822;41.468;13.560;2024-03-02T01:49:44;10.50;97.20
63317;DHT22;49822;41.468;13.560;2024-03-02T01:52:10;10.50;96.90
63317;DHT22;49822;41.468;13.560;2024-03-02T01:54:37;10.50;96.80
63317;DHT22;49822;41.468;13.560;2024-03-02T01:57:03;10.40;97.00
63317;DHT22;49822;41.468;13.560;2024-03-02T01:59:29;10.30;96.70
63317;DHT22;49822;41.468;13.560;2024-03-02T02:01:55;10.20;97.00
63317;DHT22;49822;41.468;13.560;2024-03-02T02:04:21;10.10;97.40
63317;DHT22;49822;41.468;13.560;2024-03-02T02:06:53;10.20;97.90
63317;DHT22;49822;41.468;13.560;2024-03-02T02:09:19;10.30;98.00
63317;DHT22;49822;41.468;13.560;2024-03-02T02:11:46;10.30;98.00
63317;DHT22;49822;41.468;13.560;2024-03-02T02:14:12;10.40;98.00
63317;DHT22;49822;41.468;13.560;2024-03-02T02:16:38;10.40;97.90
63317;DHT22;49822;41.468;13.560;2024-03-02T02:19:04;10.40;97.90
63317;DHT22;49822;41.468;13.560;2024-03-02T02:21:31;10.40;98.00
63317;DHT22;49822;41.468;13.560;2024-03-02T02:23:57;10.40;97.70
63317;DHT22;49822;41.468;13.560;2024-03-02T02:26:23;10.40;98.00
63317;DHT22;49822;41.468;13.560;2024-03-02T02:28:50;10.40;97.70
63317;DHT22;49822;41.468;13.560;2024-03-02T02:31:16;10.40;97.10
63317;DHT22;49822;41.468;13.560;2024-03-02T02:33:43;10.30;97.20
63317;DHT22;49822;41.468;13.560;2024-03-02T02:36:09;10.30;97.30
63317;DHT22;49822;41.468;13.560;2024-03-02T02:38:40;10.30;97.60
63317;DHT22;49822;41.468;13.560;2024-03-02T02:41:07;10.30;97.50
63317;DHT22;49822;41.468;13.560;2024-03-02T02:43:34;10.30;97.50
63317;DHT22;49822;41.468;13.560;2024-03-02T02:46:00;10.30;97.30
63317;DHT22;49822;41.468;13.560;2024-03-02T02:48:26;10.30;97.60
63317;DHT22;49822;41.468;13.560;2024-03-02T02:50:52;10.30;97.70
63317;DHT22;49822;41.468;13.560;2024-03-02T02:53:18;10.40;97.80
63317;DHT22;49822;41.468;13.560;2024-03-02T02:55:45;10.40;97.70
63317;DHT22;49822;41.468;13.560;2024-03-02T02:58:11;10.40;97.60
63317;DHT22;49822;41.468;13.560;2024-03-02T03:00:38;10.30;97.60
63317;DHT22;49822;41.468;13.560;2024-03-02T03:03:08;10.30;97.50
63317;DHT22;49822;41.468;13.560;2024-03-02T03:05:34;10.40;97.50
63317;DHT22;49822;41.468;13.560;2024-03-02T03:08:00;10.40;97.40
63317;DHT22;49822;41.468;13.560;2024-03-02T03:10:26;10.40;97.30
63317;DHT22;49822;41.468;13.560;2024-03-02T03:12:53;10.40;97.20
63317;DHT22;49822;41.468;13.560;2024-03-02T03:15:22;10.40;97.20
63317;DHT22;49822;41.468;13.560;2024-03-02T03:17:47;10.40;97.30
63317;DHT22;49822;41.468;13.560;2024-03-02T03:20:14;10.40;97.10
63317;DHT22;49822;41.468;13.560;2024-03-02T03:22:41;10.40;97.40
63317;DHT22;49822;41.468;13.560;2024-03-02T03:25:07;10.40;97.00
63317;DHT22;49822;41.468;13.560;2024-03-02T03:27:36;10.50;97.00
63317;DHT22;49822;41.468;13.560;2024-03-02T03:30:03;10.40;97.30
63317;DHT22;49822;41.468;13.560;2024-03-02T03:32:30;10.40;97.00
63317;DHT22;49822;41.468;13.560;2024-03-02T03:34:56;10.40;97.10
63317;DHT22;49822;41.468;13.560;2024-03-02T03:37:22;10.30;97.20
63317;DHT22;49822;41.468;13.560;2024-03-02T03:39:48;10.40;96.90
63317;DHT22;49822;41.468;13.560;2024-03-02T03:42:14;10.30;97.20
63317;DHT22;49822;41.468;13.560;2024-03-02T03:44:40;10.30;97.00
63317;DHT22;49822;41.468;13.560;2024-03-02T03:47:07;10.40;97.30
63317;DHT22;49822;41.468;13.560;2024-03-02T03:49:33;10.30;97.20
63317;DHT22;49822;41.468;13.560;2024-03-02T03:51:59;10.20;97.30
63317;DHT22;49822;41.468;13.560;2024-03-02T03:54:26;10.20;97.50
63317;DHT22;49822;41.468;13.560;2024-03-02T03:56:52;10.20;97.60
63317;DHT22;49822;41.468;13.560;2024-03-02T03:59:18;10.20;97.90
63317;DHT22;49822;41.468;13.560;2024-03-02T04:01:45;10.20;98.10
63317;DHT22;49822;41.468;13.560;2024-03-02T04:04:11;10.20;98.10
63317;DHT22;49822;41.468;13.560;2024-03-02T04:06:37;10.30;98.10
63317;DHT22;49822;41.468;13.560;2024-03-02T04:09:03;10.30;98.10
63317;DHT22;49822;41.468;13.560;2024-03-02T04:11:29;10.40;98.10
63317;DHT22;49822;41.468;13.560;2024-03-02T04:13:56;10.40;98.00
63317;DHT22;49822;41.468;13.560;2024-03-02T04:16:22;10.40;97.70
63317;DHT22;49822;41.468;13.560;2024-03-02T04:18:48;10.30;97.80
63317;DHT22;49822;41.468;13.560;2024-03-02T04:21:15;10.30;97.40
63317;DHT22;49822;41.468;13.560;2024-03-02T04:23:41;10.40;97.70
63317;DHT22;49822;41.468;13.560;2024-03-02T04:26:07;10.40;97.30
63317;DHT22;49822;41.468;13.560;2024-03-02T04:28:33;10.40;97.20
63317;DHT22;49822;41.468;13.560;2024-03-02T04:31:00;10.40;97.40
63317;DHT22;49822;41.468;13.560;2024-03-02T04:33:26;10.40;97.10
63317;DHT22;49822;41.468;13.560;2024-03-02T04:35:52;10.40;97.40
63317;DHT22;49822;41.468;13.560;2024-03-02T04:38:18;10.40;97.50
63317;DHT22;49822;41.468;13.560;2024-03-02T04:40:44;10.50;97.30
63317;DHT22;49822;41.468;13.560;2024-03-02T04:43:10;10.40;97.10
63317;DHT22;49822;41.468;13.560;2024-03-02T04:45:43;10.30;97.10
63317;DHT22;49822;41.468;13.560;2024-03-02T04:48:10;10.40;97.20
63317;DHT22;49822;41.468;13.560;2024-03-02T04:50:37;10.40;97.20
63317;DHT22;49822;41.468;13.560;2024-03-02T04:53:03;10.30;97.20
63317;DHT22;49822;41.468;13.560;2024-03-02T04:55:29;10.30;97.40
63317;DHT22;49822;41.468;13.560;2024-03-02T04:57:55;10.30;97.50
63317;DHT22;49822;41.468;13.560;2024-03-02T05:00:22;10.30;97.40
63317;DHT22;49822;41.468;13.560;2024-03-02T05:02:48;10.30;97.50
63317;DHT22;49822;41.468;13.560;2024-03-02T05:05:14;10.40;97.50
63317;DHT22;49822;41.468;13.560;2024-03-02T05:07:43;10.40;97.30
63317;DHT22;49822;41.468;13.560;2024-03-02T05:10:10;10.40;97.40
63317;DHT22;49822;41.468;13.560;2024-03-02T05:12:40;10.40;97.20
63317;DHT22;49822;41.468;13.560;2024-03-02T05:15:09;10.40;97.20
63317;DHT22;49822;41.468;13.560;2024-03-02T05:17:36;10.40;97.30
63317;DHT22;49822;41.468;13.560;2024-03-02T05:20:05;10.40;97.00
63317;DHT22;49822;41.468;13.560;2024-03-02T05:22:34;10.50;97.20
63317;DHT22;49822;41.468;13.560;2024-03-02T05:25:01;10.40;97.20
63317;DHT22;49822;41.468;13.560;2024-03-02T05:27:27;10.50;97.20
63317;DHT22;49822;41.468;13.560;2024-03-02T05:29:54;10.40;97.00
63317;DHT22;49822;41.468;13.560;2024-03-02T05:32:20;10.40;96.90
63317;DHT22;49822;41.468;13.560;2024-03-02T05:34:46;10.30;97.00
63317;DHT22;49822;41.468;13.560;2024-03-02T05:37:12;10.30;97.20
63317;DHT22;49822;41.468;13.560;2024-03-02T05:39:38;10.30;97.20
63317;DHT22;49822;41.468;13.560;2024-03-02T05:42:05;10.30;97.40
63317;DHT22;49822;41.468;13.560;2024-03-02T05:44:31;10.30;97.60
63317;DHT22;49822;41.468;13.560;2024-03-02T05:46:57;10.40;97.70
63317;DHT22;49822;41.468;13.560;2024-03-02T05:49:23;10.30;97.60
63317;DHT22;49822;41.468;13.560;2024-03-02T05:51:50;10.30;97.60
63317;DHT22;49822;41.468;13.560;2024-03-02T05:54:16;10.30;97.60
63317;DHT22;49822;41.468;13.560;2024-03-02T05:56:43;10.40;97.60
63317;DHT22;49822;41.468;13.560;2024-03-02T05:59:09;10.40;97.70
63317;DHT22;49822;41.468;13.560;2024-03-02T06:01:44;10.40;97.60
63317;DHT22;49822;41.468;13.560;2024-03-02T06:04:11;10.40;97.70
63317;DHT22;49822;41.468;13.560;2024-03-02T06:06:37;10.40;97.50
63317;DHT22;49822;41.468;13.560;2024-03-02T06:09:05;10.40;97.10
63317;DHT22;49822;41.468;13.560;2024-03-02T06:11:38;10.20;97.50
63317;DHT22;49822;41.468;13.560;2024-03-02T06:14:09;10.20;97.80
63317;DHT22;49822;41.468;13.560;2024-03-02T06:16:35;10.20;97.90
63317;DHT22;49822;41.468;13.560;2024-03-02T06:19:02;10.10;98.40
63317;DHT22;49822;41.468;13.560;2024-03-02T06:21:28;10.10;98.30
63317;DHT22;49822;41.468;13.560;2024-03-02T06:23:54;10.20;98.70
63317;DHT22;49822;41.468;13.560;2024-03-02T06:26:20;10.20;98.70
63317;DHT22;49822;41.468;13.560;2024-03-02T06:28:46;10.20;98.60
63317;DHT22;49822;41.468;13.560;2024-03-02T06:31:13;10.20;98.60
63317;DHT22;49822;41.468;13.560;2024-03-02T06:33:39;10.30;98.80
63317;DHT22;49822;41.468;13.560;2024-03-02T06:36:06;10.30;98.80
63317;DHT22;49822;41.468;13.560;2024-03-02T06:38:35;10.50;98.60
63317;DHT22;49822;41.468;13.560;2024-03-02T06:41:01;10.50;98.40
63317;DHT22;49822;41.468;13.560;2024-03-02T06:43:27;10.60;98.40
63317;DHT22;49822;41.468;13.560;2024-03-02T06:45:53;10.50;98.20
63317;DHT22;49822;41.468;13.560;2024-03-02T06:48:20;10.60;98.20
63317;DHT22;49822;41.468;13.560;2024-03-02T06:50:46;10.50;97.80
63317;DHT22;49822;41.468;13.560;2024-03-02T06:53:13;10.50;97.90
63317;DHT22;49822;41.468;13.560;2024-03-02T06:55:39;10.60;97.70
63317;DHT22;49822;41.468;13.560;2024-03-02T06:58:06;10.60;97.70
63317;DHT22;49822;41.468;13.560;2024-03-02T07:00:32;10.60;97.70
63317;DHT22;49822;41.468;13.560;2024-03-02T07:02:58;10.70;97.70
63317;DHT22;49822;41.468;13.560;2024-03-02T07:05:24;10.70;97.90
63317;DHT22;49822;41.468;13.560;2024-03-02T07:07:51;10.80;97.80
63317;DHT22;49822;41.468;13.560;2024-03-02T07:10:17;10.90;97.80
63317;DHT22;49822;41.468;13.560;2024-03-02T07:12:43;11.00;97.60
63317;DHT22;49822;41.468;13.560;2024-03-02T07:15:11;11.00;97.50
63317;DHT22;49822;41.468;13.560;2024-03-02T07:17:55;11.10;97.60
63317;DHT22;49822;41.468;13.560;2024-03-02T07:20:21;11.20;97.30
63317;DHT22;49822;41.468;13.560;2024-03-02T07:22:47;11.30;97.20
63317;DHT22;49822;41.468;13.560;2024-03-02T07:25:14;11.20;97.30
63317;DHT22;49822;41.468;13.560;2024-03-02T07:27:40;11.20;97.10
63317;DHT22;49822;41.468;13.560;2024-03-02T07:30:07;11.30;96.90
63317;DHT22;49822;41.468;13.560;2024-03-02T07:32:33;11.20;96.90
63317;DHT22;49822;41.468;13.560;2024-03-02T07:34:59;11.30;97.00
63317;DHT22;49822;41.468;13.560;2024-03-02T07:37:27;11.30;96.80
63317;DHT22;49822;41.468;13.560;2024-03-02T07:39:53;11.30;96.80
63317;DHT22;49822;41.468;13.560;2024-03-02T07:42:19;11.30;96.90
63317;DHT22;49822;41.468;13.560;2024-03-02T07:44:46;11.30;96.80
63317;DHT22;49822;41.468;13.560;2024-03-02T07:47:12;11.40;96.90
63317;DHT22;49822;41.468;13.560;2024-03-02T07:49:38;11.40;97.00
63317;DHT22;49822;41.468;13.560;2024-03-02T07:52:05;11.50;96.90
63317;DHT22;49822;41.468;13.560;2024-03-02T07:54:32;11.50;96.80
63317;DHT22;49822;41.468;13.560;2024-03-02T07:56:58;11.60;97.00
63317;DHT22;49822;41.468;13.560;2024-03-02T07:59:25;11.60;96.90
63317;DHT22;49822;41.468;13.560;2024-03-02T08:01:51;11.80;96.80
63317;DHT22;49822;41.468;13.560;2024-03-02T08:04:18;11.90;96.40
63317;DHT22;49822;41.468;13.560;2024-03-02T08:06:45;12.00;96.20
63317;DHT22;49822;41.468;13.560;2024-03-02T08:09:11;12.10;96.10
63317;DHT22;49822;41.468;13.560;2024-03-02T08:11:37;12.20;95.80
63317;DHT22;49822;41.468;13.560;2024-03-02T08:14:04;12.30;95.70
63317;DHT22;49822;41.468;13.560;2024-03-02T08:16:30;12.20;95.40
63317;DHT22;49822;41.468;13.560;2024-03-02T08:18:57;12.40;95.20
63317;DHT22;49822;41.468;13.560;2024-03-02T08:21:24;12.50;95.00
63317;DHT22;49822;41.468;13.560;2024-03-02T08:23:51;12.30;95.00
63317;DHT22;49822;41.468;13.560;2024-03-02T08:26:17;12.60;95.10
63317;DHT22;49822;41.468;13.560;2024-03-02T08:28:43;12.60;95.00
63317;DHT22;49822;41.468;13.560;2024-03-02T08:31:10;12.70;94.70
63317;DHT22;49822;41.468;13.560;2024-03-02T08:33:36;12.90;94.40
63317;DHT22;49822;41.468;13.560;2024-03-02T08:36:02;13.00;94.40
63317;DHT22;49822;41.468;13.560;2024-03-02T08:38:29;13.00;94.40
63317;DHT22;49822;41.468;13.560;2024-03-02T08:40:55;13.10;94.40
63317;DHT22;49822;41.468;13.560;2024-03-02T08:43:22;13.10;94.70
63317;DHT22;49822;41.468;13.560;2024-03-02T08:45:50;13.30;94.80
63317;DHT22;49822;41.468;13.560;2024-03-02T08:48:17;13.50;94.80
63317;DHT22;49822;41.468;13.560;2024-03-02T08:50:43;13.90;95.20
63317;DHT22;49822;41.468;13.560;2024-03-02T08:53:09;14.10;95.00
63317;DHT22;49822;41.468;13.560;2024-03-02T08:55:35;14.20;94.10
63317;DHT22;49822;41.468;13.560;2024-03-02T08:58:01;14.20;93.00
63317;DHT22;49822;41.468;13.560;2024-03-02T09:00:28;14.30;92.90
63317;DHT22;49822;41.468;13.560;2024-03-02T09:02:54;14.30;92.70
63317;DHT22;49822;41.468;13.560;2024-03-02T09:05:20;14.40;92.70
63317;DHT22;49822;41.468;13.560;2024-03-02T09:07:46;14.70;92.60
63317;DHT22;49822;41.468;13.560;2024-03-02T09:10:17;14.70;92.10
63317;DHT22;49822;41.468;13.560;2024-03-02T09:12:52;14.70;91.80
63317;DHT22;49822;41.468;13.560;2024-03-02T09:15:18;14.90;91.40
63317;DHT22;49822;41.468;13.560;2024-03-02T09:17:44;15.10;91.30
63317;DHT22;49822;41.468;13.560;2024-03-02T09:20:11;15.20;90.50
63317;DHT22;49822;41.468;13.560;2024-03-02T09:22:37;15.30;90.20
63317;DHT22;49822;41.468;13.560;2024-03-02T09:25:04;15.30;89.50
63317;DHT22;49822;41.468;13.560;2024-03-02T09:27:32;15.30;89.60
63317;DHT22;49822;41.468;13.560;2024-03-02T09:29:58;15.10;89.50
63317;DHT22;49822;41.468;13.560;2024-03-02T09:32:24;15.00;89.70
63317;DHT22;49822;41.468;13.560;2024-03-02T09:34:50;14.90;89.90
63317;DHT22;49822;41.468;13.560;2024-03-02T09:37:18;14.70;90.10
63317;DHT22;49822;41.468;13.560;2024-03-02T09:39:44;14.60;90.60
63317;DHT22;49822;41.468;13.560;2024-03-02T09:42:12;14.50;90.60
63317;DHT22;49822;41.468;13.560;2024-03-02T09:44:38;14.40;90.80
63317;DHT22;49822;41.468;13.560;2024-03-02T09:47:04;14.30;91.40
63317;DHT22;49822;41.468;13.560;2024-03-02T09:49:32;14.40;91.80
63317;DHT22;49822;41.468;13.560;2024-03-02T09:51:58;14.50;91.80
63317;DHT22;49822;41.468;13.560;2024-03-02T09:54:24;14.60;91.90
63317;DHT22;49822;41.468;13.560;2024-03-02T09:56:50;14.60;91.40
63317;DHT22;49822;41.468;13.560;2024-03-02T09:59:17;14.60;91.10
63317;DHT22;49822;41.468;13.560;2024-03-02T10:01:58;14.60;91.10
63317;DHT22;49822;41.468;13.560;2024-03-02T10:04:29;14.70;90.70
63317;DHT22;49822;41.468;13.560;2024-03-02T10:07:10;14.70;90.10
63317;DHT22;49822;41.468;13.560;2024-03-02T10:09:40;14.70;90.70
63317;DHT22;49822;41.468;13.560;2024-03-02T10:12:11;15.00;91.40
63317;DHT22;49822;41.468;13.560;2024-03-02T10:14:37;15.10;90.60
63317;DHT22;49822;41.468;13.560;2024-03-02T10:17:06;15.30;90.10
63317;DHT22;49822;41.468;13.560;2024-03-02T10:19:33;15.50;88.70
63317;DHT22;49822;41.468;13.560;2024-03-02T10:22:05;15.40;87.70
63317;DHT22;49822;41.468;13.560;2024-03-02T10:24:41;15.20;88.60
63317;DHT22;49822;41.468;13.560;2024-03-02T10:27:09;15.40;88.80
63317;DHT22;49822;41.468;13.560;2024-03-02T10:29:39;15.50;89.00
63317;DHT22;49822;41.468;13.560;2024-03-02T10:32:09;15.70;88.60
63317;DHT22;49822;41.468;13.560;2024-03-02T10:34:39;15.90;87.90
63317;DHT22;49822;41.468;13.560;2024-03-02T10:37:05;16.20;88.50
63317;DHT22;49822;41.468;13.560;2024-03-02T10:39:37;16.40;87.80
63317;DHT22;49822;41.468;13.560;2024-03-02T10:42:07;16.60;87.50
63317;DHT22;49822;41.468;13.560;2024-03-02T10:44:34;16.60;86.30
63317;DHT22;49822;41.468;13.560;2024-03-02T10:47:04;16.60;86.50
63317;DHT22;49822;41.468;13.560;2024-03-02T10:49:31;16.60;86.60
63317;DHT22;49822;41.468;13.560;2024-03-02T10:52:01;16.40;86.80
63317;DHT22;49822;41.468;13.560;2024-03-02T10:54:27;16.40;86.80
63317;DHT22;49822;41.468;13.560;2024-03-02T10:57:03;16.40;86.20
63317;DHT22;49822;41.468;13.560;2024-03-02T11:02:00;16.90;86.80
63317;DHT22;49822;41.468;13.560;2024-03-02T11:04:27;17.10;86.90
63317;DHT22;49822;41.468;13.560;2024-03-02T11:07:04;17.20;86.70
63317;DHT22;49822;41.468;13.560;2024-03-02T11:09:33;17.20;85.90
63317;DHT22;49822;41.468;13.560;2024-03-02T11:14:32;17.10;85.30
63317;DHT22;49822;41.468;13.560;2024-03-02T11:17:01;16.90;85.10
63317;DHT22;49822;41.468;13.560;2024-03-02T11:19:30;16.70;85.40
63317;DHT22;49822;41.468;13.560;2024-03-02T11:21:57;16.40;85.60
63317;DHT22;49822;41.468;13.560;2024-03-02T11:26:53;16.30;86.90
63317;DHT22;49822;41.468;13.560;2024-03-02T11:32:17;16.30;86.90
63317;DHT22;49822;41.468;13.560;2024-03-02T11:34:48;16.30;86.80
63317;DHT22;49822;41.468;13.560;2024-03-02T11:37:19;16.30;86.70
63317;DHT22;49822;41.468;13.560;2024-03-02T11:39:48;16.30;87.00
63317;DHT22;49822;41.468;13.560;2024-03-02T11:42:15;16.40;87.20
63317;DHT22;49822;41.468;13.560;2024-03-02T11:44:46;16.40;87.40
63317;DHT22;49822;41.468;13.560;2024-03-02T11:47:13;16.60;87.00
63317;DHT22;49822;41.468;13.560;2024-03-02T11:49:44;16.70;86.90
63317;DHT22;49822;41.468;13.560;2024-03-02T11:52:12;16.60;86.50
63317;DHT22;49822;41.468;13.560;2024-03-02T11:54:41;16.70;86.70
63317;DHT22;49822;41.468;13.560;2024-03-02T11:57:16;17.00;86.40
63317;DHT22;49822;41.468;13.560;2024-03-02T11:59:44;17.30;86.20
63317;DHT22;49822;41.468;13.560;2024-03-02T12:02:19;17.80;85.40
63317;DHT22;49822;41.468;13.560;2024-03-02T12:04:47;18.40;84.50
63317;DHT22;49822;41.468;13.560;2024-03-02T12:07:20;18.90;82.60
63317;DHT22;49822;41.468;13.560;2024-03-02T12:09:48;19.10;82.30
63317;DHT22;49822;41.468;13.560;2024-03-02T12:12:15;19.10;83.10
63317;DHT22;49822;41.468;13.560;2024-03-02T12:14:54;19.10;81.90
63317;DHT22;49822;41.468;13.560;2024-03-02T12:17:24;18.80;82.60
63317;DHT22;49822;41.468;13.560;2024-03-02T12:19:50;18.20;81.50
63317;DHT22;49822;41.468;13.560;2024-03-02T12:22:16;17.60;83.20
63317;DHT22;49822;41.468;13.560;2024-03-02T12:24:45;16.70;85.10
63317;DHT22;49822;41.468;13.560;2024-03-02T12:27:13;16.70;85.90
63317;DHT22;49822;41.468;13.560;2024-03-02T12:29:41;16.60;86.50
63317;DHT22;49822;41.468;13.560;2024-03-02T12:32:07;16.70;87.00
63317;DHT22;49822;41.468;13.560;2024-03-02T12:34:33;16.80;87.00
63317;DHT22;49822;41.468;13.560;2024-03-02T12:37:00;16.90;86.90
63317;DHT22;49822;41.468;13.560;2024-03-02T12:39:26;17.00;86.80
63317;DHT22;49822;41.468;13.560;2024-03-02T12:41:53;17.00;86.50
63317;DHT22;49822;41.468;13.560;2024-03-02T12:44:20;17.20;86.30
63317;DHT22;49822;41.468;13.560;2024-03-02T12:46:47;17.40;85.90
63317;DHT22;49822;41.468;13.560;2024-03-02T12:49:14;17.50;85.80
63317;DHT22;49822;41.468;13.560;2024-03-02T12:51:46;17.50;84.60
63317;DHT22;49822;41.468;13.560;2024-03-02T12:54:17;17.50;84.40
63317;DHT22;49822;41.468;13.560;2024-03-02T12:56:44;17.50;85.10
63317;DHT22;49822;41.468;13.560;2024-03-02T12:59:19;17.50;85.20
63317;DHT22;49822;41.468;13.560;2024-03-02T13:01:54;17.30;84.80
63317;DHT22;49822;41.468;13.560;2024-03-02T13:04:28;17.20;85.50
63317;DHT22;49822;41.468;13.560;2024-03-02T13:06:55;16.80;86.00
63317;DHT22;49822;41.468;13.560;2024-03-02T13:09:23;16.60;85.80
63317;DHT22;49822;41.468;13.560;2024-03-02T13:11:50;16.20;86.70
63317;DHT22;49822;41.468;13.560;2024-03-02T13:14:16;16.00;86.50
63317;DHT22;49822;41.468;13.560;2024-03-02T13:16:42;15.70;87.30
63317;DHT22;49822;41.468;13.560;2024-03-02T13:19:11;15.30;88.40
63317;DHT22;49822;41.468;13.560;2024-03-02T13:21:38;15.00;89.00
63317;DHT22;49822;41.468;13.560;2024-03-02T13:24:05;14.70;90.00
63317;DHT22;49822;41.468;13.560;2024-03-02T13:26:34;14.20;91.20
63317;DHT22;49822;41.468;13.560;2024-03-02T13:29:00;14.00;92.80
63317;DHT22;49822;41.468;13.560;2024-03-02T13:31:27;13.90;92.80
63317;DHT22;49822;41.468;13.560;2024-03-02T13:33:53;13.90;92.10
63317;DHT22;49822;41.468;13.560;2024-03-02T13:36:20;13.80;92.90
63317;DHT22;49822;41.468;13.560;2024-03-02T13:38:46;13.70;93.00
63317;DHT22;49822;41.468;13.560;2024-03-02T13:41:12;13.70;93.70
63317;DHT22;49822;41.468;13.560;2024-03-02T13:43:39;13.70;93.50
63317;DHT22;49822;41.468;13.560;2024-03-02T13:46:06;13.80;94.10
63317;DHT22;49822;41.468;13.560;2024-03-02T13:48:32;14.00;94.40
63317;DHT22;49822;41.468;13.560;2024-03-02T13:50:58;14.10;94.60
63317;DHT22;49822;41.468;13.560;2024-03-02T13:53:25;14.30;94.80
63317;DHT22;49822;41.468;13.560;2024-03-02T13:55:51;14.50;95.00
63317;DHT22;49822;41.468;13.560;2024-03-02T13:58:17;14.70;95.00
63317;DHT22;49822;41.468;13.560;2024-03-02T14:00:46;14.70;94.30
63317;DHT22;49822;41.468;13.560;2024-03-02T14:03:13;14.70;93.50
63317;DHT22;49822;41.468;13.560;2024-03-02T14:05:40;14.70;93.90
63317;DHT22;49822;41.468;13.560;2024-03-02T14:08:06;14.70;93.90
63317;DHT22;49822;41.468;13.560;2024-03-02T14:10:33;14.70;93.60
63317;DHT22;49822;41.468;13.560;2024-03-02T14:12:59;14.60;94.00
63317;DHT22;49822;41.468;13.560;2024-03-02T14:15:25;14.60;94.60
63317;DHT22;49822;41.468;13.560;2024-03-02T14:17:51;14.50;95.00
63317;DHT22;49822;41.468;13.560;2024-03-02T14:20:18;14.60;95.10
63317;DHT22;49822;41.468;13.560;2024-03-02T14:22:49;14.60;94.00
63317;DHT22;49822;41.468;13.560;2024-03-02T14:25:16;14.70;94.00
63317;DHT22;49822;41.468;13.560;2024-03-02T14:27:43;14.80;93.80
63317;DHT22;49822;41.468;13.560;2024-03-02T14:30:09;14.80;93.50
63317;DHT22;49822;41.468;13.560;2024-03-02T14:32:35;14.90;93.90
63317;DHT22;49822;41.468;13.560;2024-03-02T14:35:05;15.40;93.20
63317;DHT22;49822;41.468;13.560;2024-03-02T14:37:31;15.90;90.80
63317;DHT22;49822;41.468;13.560;2024-03-02T14:39:57;16.70;89.00
63317;DHT22;49822;41.468;13.560;2024-03-02T14:42:23;16.80;84.50
63317;DHT22;49822;41.468;13.560;2024-03-02T14:44:50;16.90;85.30
63317;DHT22;49822;41.468;13.560;2024-03-02T14:47:17;16.60;84.50
63317;DHT22;49822;41.468;13.560;2024-03-02T14:49:43;16.70;85.00
63317;DHT22;49822;41.468;13.560;2024-03-02T14:52:09;16.50;85.50
63317;DHT22;49822;41.468;13.560;2024-03-02T14:54:38;16.10;85.90
63317;DHT22;49822;41.468;13.560;2024-03-02T14:57:07;16.00;85.50
63317;DHT22;49822;41.468;13.560;2024-03-02T14:59:36;16.80;84.90
63317;DHT22;49822;41.468;13.560;2024-03-02T15:02:04;16.60;83.00
63317;DHT22;49822;41.468;13.560;2024-03-02T15:04:33;17.20;84.30
63317;DHT22;49822;41.468;13.560;2024-03-02T15:07:01;18.10;81.90
63317;DHT22;49822;41.468;13.560;2024-03-02T15:09:27;18.20;79.50
63317;DHT22;49822;41.468;13.560;2024-03-02T15:11:56;18.60;78.60
63317;DHT22;49822;41.468;13.560;2024-03-02T15:14:25;19.00;78.10
63317;DHT22;49822;41.468;13.560;2024-03-02T15:16:54;20.00;77.10
63317;DHT22;49822;41.468;13.560;2024-03-02T15:19:23;20.30;75.50
63317;DHT22;49822;41.468;13.560;2024-03-02T15:21:49;21.10;74.40
63317;DHT22;49822;41.468;13.560;2024-03-02T15:24:17;21.20;73.40
63317;DHT22;49822;41.468;13.560;2024-03-02T15:26:44;21.60;72.70
63317;DHT22;49822;41.468;13.560;2024-03-02T15:29:11;22.60;71.20
63317;DHT22;49822;41.468;13.560;2024-03-02T15:31:39;23.20;69.80
63317;DHT22;49822;41.468;13.560;2024-03-02T15:34:05;23.50;69.20